sensor_id;sensor_type;location;lat;lon;timestamp;temperature;humidity
20722;DHT22;10522;52.198;9.890;2024-03-22T00:01:46;9.00;99.90
20722;DHT22;10522;52.198;9.890;2024-03-22T00:04:12;8.90;99.90
20722;DHT22;10522;52.198;9.890;2024-03-22T00:06:39;9.10;99.90
20722;DHT22;10522;52.198;9.890;2024-03-22T00:09:05;9.00;99.90
20722;DHT22;10522;52.198;9.890;2024-03-22T00:11:31;9.00;99.90
20722;DHT22;10522;52.198;9.890;2024-03-22T00:13:57;9.10;99.90
20722;DHT22;10522;52.198;9.890;2024-03-22T00:16:23;9.10;99.90
20722;DHT22;10522;52.198;9.890;2024-03-22T00:18:48;9.00;99.90
20722;DHT22;10522;52.198;9.890;2024-03-22T00:21:14;9.10;99.90
20722;DHT22;10522;52.198;9.890;2024-03-22T00:23:40;9.10;99.90
20722;DHT22;10522;52.198;9.890;2024-03-22T00:26:05;9.10;99.90
20722;DHT22;10522;52.198;9.890;2024-03-22T00:28:31;9.10;99.90
20722;DHT22;10522;52.198;9.890;2024-03-22T00:30:57;9.00;99.90
20722;DHT22;10522;52.198;9.890;2024-03-22T00:33:22;9.00;99.90
20722;DHT22;10522;52.198;9.890;2024-03-22T00:35:48;9.00;99.90
20722;DHT22;10522;52.198;9.890;2024-03-22T00:38:14;9.10;99.90
20722;DHT22;10522;52.198;9.890;2024-03-22T00:40:39;9.00;99.90
20722;DHT22;10522;52.198;9.890;2024-03-22T00:43:06;9.10;99.90
20722;DHT22;10522;52.198;9.890;2024-03-22T00:45:31;9.10;99.90
20722;DHT22;10522;52.198;9.890;2024-03-22T00:47:57;9.10;99.90
20722;DHT22;10522;52.198;9.890;2024-03-22T00:50:23;9.10;99.90
20722;DHT22;10522;52.198;9.890;2024-03-22T00:52:50;9.00;99.90
20722;DHT22;10522;52.198;9.890;2024-03-22T00:55:18;9.10;99.90
20722;DHT22;10522;52.198;9.890;2024-03-22T00:57:44;9.10;99.90
20722;DHT22;10522;52.198;9.890;2024-03-22T01:00:10;9.30;99.90
20722;DHT22;10522;52.198;9.890;2024-03-22T01:02:35;9.20;99.90
20722;DHT22;10522;52.198;9.890;2024-03-22T01:05:01;9.20;99.90
20722;DHT22;10522;52.198;9.890;2024-03-22T01:07:27;9.30;99.90
20722;DHT22;10522;52.198;9.890;2024-03-22T01:09:52;9.30;99.90
20722;DHT22;10522;52.198;9.890;2024-03-22T01:12:18;9.40;99.90
20722;DHT22;10522;52.198;9.890;2024-03-22T01:14:44;9.40;99.90
20722;DHT22;10522;52.198;9.890;2024-03-22T01:17:09;9.40;99.90
20722;DHT22;10522;52.198;9.890;2024-03-22T01:19:35;9.40;99.90
20722;DHT22;10522;52.198;9.890;2024-03-22T01:22:01;9.50;99.90
20722;DHT22;10522;52.198;9.890;2024-03-22T01:24:26;9.50;99.90
20722;DHT22;10522;52.198;9.890;2024-03-22T01:26:52;9.50;99.90
20722;DHT22;10522;52.198;9.890;2024-03-22T01:29:18;9.50;99.90
20722;DHT22;10522;52.198;9.890;2024-03-22T01:31:44;9.40;99.90
20722;DHT22;10522;52.198;9.890;2024-03-22T01:34:09;9.40;99.90
20722;DHT22;10522;52.198;9.890;2024-03-22T01:36:35;9.40;99.90
20722;DHT22;10522;52.198;9.890;2024-03-22T01:39:01;9.50;99.90
20722;DHT22;10522;52.198;9.890;2024-03-22T01:41:26;9.50;99.90
20722;DHT22;10522;52.198;9.890;2024-03-22T01:43:52;9.50;99.90
20722;DHT22;10522;52.198;9.890;2024-03-22T01:46:18;9.40;99.90
20722;DHT22;10522;52.198;9.890;2024-03-22T01:48:44;9.40;99.90
20722;DHT22;10522;52.198;9.890;2024-03-22T01:51:09;9.40;99.90
20722;DHT22;10522;52.198;9.890;2024-03-22T01:53:37;9.40;99.90
20722;DHT22;10522;52.198;9.890;2024-03-22T01:56:03;9.40;99.90
20722;DHT22;10522;52.198;9.890;2024-03-22T01:58:29;9.30;99.90
20722;DHT22;10522;52.198;9.890;2024-03-22T02:00:54;9.40;99.90
20722;DHT22;10522;52.198;9.890;2024-03-22T02:03:21;9.40;99.90
20722;DHT22;10522;52.198;9.890;2024-03-22T02:05:46;9.40;99.90
20722;DHT22;10522;52.198;9.890;2024-03-22T02:08:12;9.40;99.90
20722;DHT22;10522;52.198;9.890;2024-03-22T02:10:38;9.40;99.90
20722;DHT22;10522;52.198;9.890;2024-03-22T02:13:03;9.40;99.90
20722;DHT22;10522;52.198;9.890;2024-03-22T02:15:29;9.50;99.90
20722;DHT22;10522;52.198;9.890;2024-03-22T02:17:55;9.50;99.90
20722;DHT22;10522;52.198;9.890;2024-03-22T02:20:21;9.50;99.90
20722;DHT22;10522;52.198;9.890;2024-03-22T02:22:46;9.40;99.90
20722;DHT22;10522;52.198;9.890;2024-03-22T02:25:12;9.40;99.90
20722;DHT22;10522;52.198;9.890;2024-03-22T02:27:38;9.60;99.90
20722;DHT22;10522;52.198;9.890;2024-03-22T02:30:04;9.60;99.90
20722;DHT22;10522;52.198;9.890;2024-03-22T02:32:30;9.60;99.90
20722;DHT22;10522;52.198;9.890;2024-03-22T02:34:56;9.60;99.90
20722;DHT22;10522;52.198;9.890;2024-03-22T02:37:22;9.60;99.90
20722;DHT22;10522;52.198;9.890;2024-03-22T02:39:47;9.60;99.90
20722;DHT22;10522;52.198;9.890;2024-03-22T02:42:13;9.60;99.90
20722;DHT22;10522;52.198;9.890;2024-03-22T02:44:38;9.70;99.90
20722;DHT22;10522;52.198;9.890;2024-03-22T02:47:11;9.70;99.90
20722;DHT22;10522;52.198;9.890;2024-03-22T02:49:38;9.60;99.90
20722;DHT22;10522;52.198;9.890;2024-03-22T02:52:04;9.60;99.90
20722;DHT22;10522;52.198;9.890;2024-03-22T02:54:30;9.60;99.90
20722;DHT22;10522;52.198;9.890;2024-03-22T02:56:55;9.60;99.90
20722;DHT22;10522;52.198;9.890;2024-03-22T02:59:21;9.60;99.90
20722;DHT22;10522;52.198;9.890;2024-03-22T03:01:46;9.60;99.90
20722;DHT22;10522;52.198;9.890;2024-03-22T03:04:12;9.60;99.90
20722;DHT22;10522;52.198;9.890;2024-03-22T03:06:38;9.60;99.90
20722;DHT22;10522;52.198;9.890;2024-03-22T03:09:03;9.60;99.90
20722;DHT22;10522;52.198;9.890;2024-03-22T03:11:36;9.70;99.90
20722;DHT22;10522;52.198;9.890;2024-03-22T03:14:02;9.70;99.90
20722;DHT22;10522;52.198;9.890;2024-03-22T03:16:27;9.70;99.90
20722;DHT22;10522;52.198;9.890;2024-03-22T03:18:53;9.60;99.90
20722;DHT22;10522;52.198;9.890;2024-03-22T03:21:19;9.70;99.90
20722;DHT22;10522;52.198;9.890;2024-03-22T03:23:44;9.70;99.90
20722;DHT22;10522;52.198;9.890;2024-03-22T03:26:10;9.80;99.90
20722;DHT22;10522;52.198;9.890;2024-03-22T03:28:35;9.80;99.90
20722;DHT22;10522;52.198;9.890;2024-03-22T03:31:01;9.70;99.90
20722;DHT22;10522;52.198;9.890;2024-03-22T03:33:26;9.70;99.90
20722;DHT22;10522;52.198;9.890;2024-03-22T03:35:52;9.70;99.90
20722;DHT22;10522;52.198;9.890;2024-03-22T03:38:17;9.60;99.90
20722;DHT22;10522;52.198;9.890;2024-03-22T03:40:43;9.60;99.90
20722;DHT22;10522;52.198;9.890;2024-03-22T03:43:09;9.70;99.90
20722;DHT22;10522;52.198;9.890;2024-03-22T03:45:36;9.60;99.90
20722;DHT22;10522;52.198;9.890;2024-03-22T03:48:02;9.50;99.90
20722;DHT22;10522;52.198;9.890;2024-03-22T03:50:28;9.50;99.90
20722;DHT22;10522;52.198;9.890;2024-03-22T03:52:54;9.40;99.90
20722;DHT22;10522;52.198;9.890;2024-03-22T03:55:19;9.40;99.90
20722;DHT22;10522;52.198;9.890;2024-03-22T03:57:45;9.40;99.90
20722;DHT22;10522;52.198;9.890;2024-03-22T04:00:11;9.40;99.90
20722;DHT22;10522;52.198;9.890;2024-03-22T04:02:36;9.40;99.90
20722;DHT22;10522;52.198;9.890;2024-03-22T04:05:02;9.40;99.90
20722;DHT22;10522;52.198;9.890;2024-03-22T04:07:27;9.40;99.90
20722;DHT22;10522;52.198;9.890;2024-03-22T04:09:54;9.40;99.90
20722;DHT22;10522;52.198;9.890;2024-03-22T04:12:20;9.40;99.90
20722;DHT22;10522;52.198;9.890;2024-03-22T04:14:45;9.40;99.90
20722;DHT22;10522;52.198;9.890;2024-03-22T04:17:11;9.40;99.90
20722;DHT22;10522;52.198;9.890;2024-03-22T04:19:37;9.40;99.90
20722;DHT22;10522;52.198;9.890;2024-03-22T04:22:03;9.30;99.90
20722;DHT22;10522;52.198;9.890;2024-03-22T04:24:29;9.40;99.90
20722;DHT22;10522;52.198;9.890;2024-03-22T04:26:54;9.30;99.90
20722;DHT22;10522;52.198;9.890;2024-03-22T04:29:20;9.40;99.90
20722;DHT22;10522;52.198;9.890;2024-03-22T04:31:45;9.40;99.90
20722;DHT22;10522;52.198;9.890;2024-03-22T04:34:11;9.40;99.90
20722;DHT22;10522;52.198;9.890;2024-03-22T04:36:37;9.40;99.90
20722;DHT22;10522;52.198;9.890;2024-03-22T04:39:02;9.50;99.90
20722;DHT22;10522;52.198;9.890;2024-03-22T04:41:29;9.50;99.90
20722;DHT22;10522;52.198;9.890;2024-03-22T04:43:54;9.50;99.90
20722;DHT22;10522;52.198;9.890;2024-03-22T04:46:20;9.50;99.90
20722;DHT22;10522;52.198;9.890;2024-03-22T04:48:46;9.60;99.90
20722;DHT22;10522;52.198;9.890;2024-03-22T04:51:11;9.60;99.90
20722;DHT22;10522;52.198;9.890;2024-03-22T04:53:37;9.50;99.90
20722;DHT22;10522;52.198;9.890;2024-03-22T04:56:03;9.60;99.90
20722;DHT22;10522;52.198;9.890;2024-03-22T04:58:29;9.60;99.90
20722;DHT22;10522;52.198;9.890;2024-03-22T05:00:58;9.60;99.90
20722;DHT22;10522;52.198;9.890;2024-03-22T05:03:24;9.60;99.90
20722;DHT22;10522;52.198;9.890;2024-03-22T05:05:50;9.70;99.90
20722;DHT22;10522;52.198;9.890;2024-03-22T05:08:15;9.60;99.90
20722;DHT22;10522;52.198;9.890;2024-03-22T05:10:41;9.50;99.90
20722;DHT22;10522;52.198;9.890;2024-03-22T05:13:07;9.60;99.90
20722;DHT22;10522;52.198;9.890;2024-03-22T05:15:33;9.60;99.90
20722;DHT22;10522;52.198;9.890;2024-03-22T05:17:59;9.60;99.90
20722;DHT22;10522;52.198;9.890;2024-03-22T05:20:25;9.70;99.90
20722;DHT22;10522;52.198;9.890;2024-03-22T05:22:51;9.70;99.90
20722;DHT22;10522;52.198;9.890;2024-03-22T05:25:17;9.70;99.90
20722;DHT22;10522;52.198;9.890;2024-03-22T05:27:43;9.70;99.90
20722;DHT22;10522;52.198;9.890;2024-03-22T05:30:10;9.80;99.90
20722;DHT22;10522;52.198;9.890;2024-03-22T05:32:36;9.70;99.90
20722;DHT22;10522;52.198;9.890;2024-03-22T05:35:01;9.80;99.90
20722;DHT22;10522;52.198;9.890;2024-03-22T05:37:27;9.80;99.90
20722;DHT22;10522;52.198;9.890;2024-03-22T05:39:52;9.90;99.90
20722;DHT22;10522;52.198;9.890;2024-03-22T05:42:18;9.80;99.90
20722;DHT22;10522;52.198;9.890;2024-03-22T05:44:44;9.80;99.90
20722;DHT22;10522;52.198;9.890;2024-03-22T05:47:10;9.90;99.90
20722;DHT22;10522;52.198;9.890;2024-03-22T05:49:35;9.90;99.90
20722;DHT22;10522;52.198;9.890;2024-03-22T05:52:01;9.90;99.90
20722;DHT22;10522;52.198;9.890;2024-03-22T05:54:27;9.90;99.90
20722;DHT22;10522;52.198;9.890;2024-03-22T05:56:52;9.90;99.90
20722;DHT22;10522;52.198;9.890;2024-03-22T05:59:18;9.90;99.90
20722;DHT22;10522;52.198;9.890;2024-03-22T06:01:43;10.00;99.90
20722;DHT22;10522;52.198;9.890;2024-03-22T06:04:09;10.00;99.90
20722;DHT22;10522;52.198;9.890;2024-03-22T06:06:35;10.00;99.90
20722;DHT22;10522;52.198;9.890;2024-03-22T06:09:02;10.00;99.90
20722;DHT22;10522;52.198;9.890;2024-03-22T06:11:34;10.10;99.90
20722;DHT22;10522;52.198;9.890;2024-03-22T06:14:00;10.10;99.90
20722;DHT22;10522;52.198;9.890;2024-03-22T06:16:25;10.10;99.90
20722;DHT22;10522;52.198;9.890;2024-03-22T06:18:51;10.10;99.90
20722;DHT22;10522;52.198;9.890;2024-03-22T06:21:16;10.20;99.90
20722;DHT22;10522;52.198;9.890;2024-03-22T06:23:49;10.20;99.90
20722;DHT22;10522;52.198;9.890;2024-03-22T06:26:15;10.20;99.90
20722;DHT22;10522;52.198;9.890;2024-03-22T06:28:41;10.20;99.90
20722;DHT22;10522;52.198;9.890;2024-03-22T06:31:07;10.20;99.90
20722;DHT22;10522;52.198;9.890;2024-03-22T06:33:33;10.20;99.90
20722;DHT22;10522;52.198;9.890;2024-03-22T06:35:59;10.30;99.90
20722;DHT22;10522;52.198;9.890;2024-03-22T06:38:25;10.30;99.90
20722;DHT22;10522;52.198;9.890;2024-03-22T06:40:50;10.40;99.90
20722;DHT22;10522;52.198;9.890;2024-03-22T06:43:16;10.50;99.90
20722;DHT22;10522;52.198;9.890;2024-03-22T06:45:42;10.50;99.90
20722;DHT22;10522;52.198;9.890;2024-03-22T06:48:07;10.60;99.90
20722;DHT22;10522;52.198;9.890;2024-03-22T06:50:33;10.60;99.90
20722;DHT22;10522;52.198;9.890;2024-03-22T06:52:59;10.70;99.90
20722;DHT22;10522;52.198;9.890;2024-03-22T06:55:24;10.70;99.90
20722;DHT22;10522;52.198;9.890;2024-03-22T06:57:50;10.70;99.90
20722;DHT22;10522;52.198;9.890;2024-03-22T07:00:17;10.70;99.90
20722;DHT22;10522;52.198;9.890;2024-03-22T07:02:43;10.70;99.90
20722;DHT22;10522;52.198;9.890;2024-03-22T07:05:10;10.70;99.90
20722;DHT22;10522;52.198;9.890;2024-03-22T07:07:36;10.70;99.90
20722;DHT22;10522;52.198;9.890;2024-03-22T07:10:02;10.70;99.90
20722;DHT22;10522;52.198;9.890;2024-03-22T07:12:28;10.70;99.90
20722;DHT22;10522;52.198;9.890;2024-03-22T07:14:55;10.70;99.90
20722;DHT22;10522;52.198;9.890;2024-03-22T07:17:21;10.70;99.90
20722;DHT22;10522;52.198;9.890;2024-03-22T07:19:53;10.80;99.90
20722;DHT22;10522;52.198;9.890;2024-03-22T07:22:19;10.80;99.90
20722;DHT22;10522;52.198;9.890;2024-03-22T07:24:45;10.80;99.90
20722;DHT22;10522;52.198;9.890;2024-03-22T07:27:11;10.90;99.90
20722;DHT22;10522;52.198;9.890;2024-03-22T07:29:37;11.00;99.90
20722;DHT22;10522;52.198;9.890;2024-03-22T07:32:03;11.10;99.90
20722;DHT22;10522;52.198;9.890;2024-03-22T07:34:29;11.10;99.90
20722;DHT22;10522;52.198;9.890;2024-03-22T07:36:54;11.20;99.90
20722;DHT22;10522;52.198;9.890;2024-03-22T07:39:20;11.20;99.90
20722;DHT22;10522;52.198;9.890;2024-03-22T07:41:46;11.30;99.90
20722;DHT22;10522;52.198;9.890;2024-03-22T07:44:11;11.40;99.90
20722;DHT22;10522;52.198;9.890;2024-03-22T07:46:37;11.50;99.90
20722;DHT22;10522;52.198;9.890;2024-03-22T07:49:02;11.50;99.90
20722;DHT22;10522;52.198;9.890;2024-03-22T07:51:30;11.60;99.90
20722;DHT22;10522;52.198;9.890;2024-03-22T07:53:55;11.80;99.90
20722;DHT22;10522;52.198;9.890;2024-03-22T07:56:21;11.80;99.90
20722;DHT22;10522;52.198;9.890;2024-03-22T07:58:48;11.80;99.90
20722;DHT22;10522;52.198;9.890;2024-03-22T08:01:14;11.90;99.90
20722;DHT22;10522;52.198;9.890;2024-03-22T08:03:39;11.90;99.90
20722;DHT22;10522;52.198;9.890;2024-03-22T08:06:05;12.00;99.90
20722;DHT22;10522;52.198;9.890;2024-03-22T08:08:30;12.00;99.90
20722;DHT22;10522;52.198;9.890;2024-03-22T08:10:56;12.00;99.90
20722;DHT22;10522;52.198;9.890;2024-03-22T08:13:22;11.90;99.90
20722;DHT22;10522;52.198;9.890;2024-03-22T08:15:47;11.90;99.90
20722;DHT22;10522;52.198;9.890;2024-03-22T08:18:13;12.00;99.90
20722;DHT22;10522;52.198;9.890;2024-03-22T08:20:39;11.90;99.90
20722;DHT22;10522;52.198;9.890;2024-03-22T08:23:07;12.00;99.90
20722;DHT22;10522;52.198;9.890;2024-03-22T08:25:33;12.00;99.90
20722;DHT22;10522;52.198;9.890;2024-03-22T08:27:59;11.90;99.90
20722;DHT22;10522;52.198;9.890;2024-03-22T08:30:24;11.90;99.90
20722;DHT22;10522;52.198;9.890;2024-03-22T08:32:51;11.80;99.90
20722;DHT22;10522;52.198;9.890;2024-03-22T08:35:16;11.90;99.90
20722;DHT22;10522;52.198;9.890;2024-03-22T08:37:42;11.90;99.90
20722;DHT22;10522;52.198;9.890;2024-03-22T08:40:08;11.90;99.90
20722;DHT22;10522;52.198;9.890;2024-03-22T08:42:35;12.00;99.90
20722;DHT22;10522;52.198;9.890;2024-03-22T08:45:01;12.00;99.90
20722;DHT22;10522;52.198;9.890;2024-03-22T08:47:27;12.10;99.90
20722;DHT22;10522;52.198;9.890;2024-03-22T08:49:52;12.00;99.90
20722;DHT22;10522;52.198;9.890;2024-03-22T08:52:18;12.10;99.90
20722;DHT22;10522;52.198;9.890;2024-03-22T08:54:44;12.00;99.90
20722;DHT22;10522;52.198;9.890;2024-03-22T08:57:10;12.10;99.90
20722;DHT22;10522;52.198;9.890;2024-03-22T08:59:35;12.10;99.90
20722;DHT22;10522;52.198;9.890;2024-03-22T09:02:03;12.10;99.90
20722;DHT22;10522;52.198;9.890;2024-03-22T09:04:29;12.20;99.90
20722;DHT22;10522;52.198;9.890;2024-03-22T09:06:54;12.30;99.90
20722;DHT22;10522;52.198;9.890;2024-03-22T09:09:20;12.40;99.90
20722;DHT22;10522;52.198;9.890;2024-03-22T09:11:46;12.30;99.90
20722;DHT22;10522;52.198;9.890;2024-03-22T09:14:11;12.40;99.90
20722;DHT22;10522;52.198;9.890;2024-03-22T09:16:37;12.40;99.90
20722;DHT22;10522;52.198;9.890;2024-03-22T09:19:02;12.40;99.90
20722;DHT22;10522;52.198;9.890;2024-03-22T09:21:28;12.40;99.90
20722;DHT22;10522;52.198;9.890;2024-03-22T09:23:54;12.40;99.90
20722;DHT22;10522;52.198;9.890;2024-03-22T09:26:19;12.50;99.90
20722;DHT22;10522;52.198;9.890;2024-03-22T09:28:48;12.50;99.90
20722;DHT22;10522;52.198;9.890;2024-03-22T09:31:15;12.50;99.90
20722;DHT22;10522;52.198;9.890;2024-03-22T09:33:42;12.50;99.90
20722;DHT22;10522;52.198;9.890;2024-03-22T09:36:08;12.40;99.90
20722;DHT22;10522;52.198;9.890;2024-03-22T09:38:34;12.50;99.90
20722;DHT22;10522;52.198;9.890;2024-03-22T09:41:00;12.50;99.90
20722;DHT22;10522;52.198;9.890;2024-03-22T09:43:27;12.50;99.90
20722;DHT22;10522;52.198;9.890;2024-03-22T09:45:54;12.40;99.90
20722;DHT22;10522;52.198;9.890;2024-03-22T09:48:20;12.40;99.90
20722;DHT22;10522;52.198;9.890;2024-03-22T09:50:46;12.50;99.90
20722;DHT22;10522;52.198;9.890;2024-03-22T09:53:21;12.50;99.90
20722;DHT22;10522;52.198;9.890;2024-03-22T09:55:48;12.50;99.90
20722;DHT22;10522;52.198;9.890;2024-03-22T09:58:15;12.50;99.90
20722;DHT22;10522;52.198;9.890;2024-03-22T10:00:42;12.50;99.90
20722;DHT22;10522;52.198;9.890;2024-03-22T10:03:09;12.50;99.90
20722;DHT22;10522;52.198;9.890;2024-03-22T10:05:36;12.60;99.90
20722;DHT22;10522;52.198;9.890;2024-03-22T10:08:08;12.60;99.90
20722;DHT22;10522;52.198;9.890;2024-03-22T10:10:33;12.50;99.90
20722;DHT22;10522;52.198;9.890;2024-03-22T10:13:05;12.50;99.90
20722;DHT22;10522;52.198;9.890;2024-03-22T10:15:31;12.50;99.90
20722;DHT22;10522;52.198;9.890;2024-03-22T10:17:57;12.60;99.90
20722;DHT22;10522;52.198;9.890;2024-03-22T10:20:23;12.70;99.90
20722;DHT22;10522;52.198;9.890;2024-03-22T10:22:57;12.70;99.90
20722;DHT22;10522;52.198;9.890;2024-03-22T10:25:24;12.60;99.90
20722;DHT22;10522;52.198;9.890;2024-03-22T10:27:49;12.70;99.90
20722;DHT22;10522;52.198;9.890;2024-03-22T10:30:16;12.70;99.90
20722;DHT22;10522;52.198;9.890;2024-03-22T10:32:43;12.80;99.90
20722;DHT22;10522;52.198;9.890;2024-03-22T10:35:13;12.80;99.90
20722;DHT22;10522;52.198;9.890;2024-03-22T10:37:40;12.80;99.90
20722;DHT22;10522;52.198;9.890;2024-03-22T10:40:07;12.90;99.90
20722;DHT22;10522;52.198;9.890;2024-03-22T10:42:37;12.90;99.90
20722;DHT22;10522;52.198;9.890;2024-03-22T10:45:07;12.90;99.90
20722;DHT22;10522;52.198;9.890;2024-03-22T10:47:35;12.90;99.90
20722;DHT22;10522;52.198;9.890;2024-03-22T10:50:10;12.90;99.90
20722;DHT22;10522;52.198;9.890;2024-03-22T10:52:41;13.00;99.90
20722;DHT22;10522;52.198;9.890;2024-03-22T10:55:23;12.90;99.90
20722;DHT22;10522;52.198;9.890;2024-03-22T10:57:53;12.80;99.90
20722;DHT22;10522;52.198;9.890;2024-03-22T11:00:44;12.50;99.90
20722;DHT22;10522;52.198;9.890;2024-03-22T11:03:13;11.90;99.90
20722;DHT22;10522;52.198;9.890;2024-03-22T11:05:49;11.70;99.90
20722;DHT22;10522;52.198;9.890;2024-03-22T11:08:32;11.70;99.90
20722;DHT22;10522;52.198;9.890;2024-03-22T11:11:25;11.70;99.90
20722;DHT22;10522;52.198;9.890;2024-03-22T11:13:57;11.80;99.90
20722;DHT22;10522;52.198;9.890;2024-03-22T11:16:23;11.80;99.90
20722;DHT22;10522;52.198;9.890;2024-03-22T11:18:49;11.90;99.90
20722;DHT22;10522;52.198;9.890;2024-03-22T11:21:23;11.90;99.90
20722;DHT22;10522;52.198;9.890;2024-03-22T11:24:00;11.90;99.90
20722;DHT22;10522;52.198;9.890;2024-03-22T11:26:27;12.00;99.90
20722;DHT22;10522;52.198;9.890;2024-03-22T11:28:53;12.10;99.90
20722;DHT22;10522;52.198;9.890;2024-03-22T11:31:18;12.10;99.90
20722;DHT22;10522;52.198;9.890;2024-03-22T11:33:47;12.10;99.90
20722;DHT22;10522;52.198;9.890;2024-03-22T11:36:14;12.20;99.90
20722;DHT22;10522;52.198;9.890;2024-03-22T11:38:39;12.20;99.90
20722;DHT22;10522;52.198;9.890;2024-03-22T11:41:05;12.30;99.90
20722;DHT22;10522;52.198;9.890;2024-03-22T11:43:32;12.30;99.90
20722;DHT22;10522;52.198;9.890;2024-03-22T11:45:58;12.30;99.90
20722;DHT22;10522;52.198;9.890;2024-03-22T11:48:25;12.50;99.90
20722;DHT22;10522;52.198;9.890;2024-03-22T11:50:50;12.50;99.90
20722;DHT22;10522;52.198;9.890;2024-03-22T11:53:18;12.50;99.90
20722;DHT22;10522;52.198;9.890;2024-03-22T11:55:44;12.50;99.90
20722;DHT22;10522;52.198;9.890;2024-03-22T11:58:10;12.60;99.90
20722;DHT22;10522;52.198;9.890;2024-03-22T12:00:36;12.70;99.90
20722;DHT22;10522;52.198;9.890;2024-03-22T12:03:04;12.70;99.90
20722;DHT22;10522;52.198;9.890;2024-03-22T12:05:32;12.70;99.90
20722;DHT22;10522;52.198;9.890;2024-03-22T12:07:58;12.70;99.90
20722;DHT22;10522;52.198;9.890;2024-03-22T12:10:24;12.80;99.90
20722;DHT22;10522;52.198;9.890;2024-03-22T12:12:49;12.80;99.90
20722;DHT22;10522;52.198;9.890;2024-03-22T12:15:15;12.80;99.90
20722;DHT22;10522;52.198;9.890;2024-03-22T12:17:43;12.70;99.90
20722;DHT22;10522;52.198;9.890;2024-03-22T12:20:09;12.70;99.90
20722;DHT22;10522;52.198;9.890;2024-03-22T12:22:35;12.70;99.90
20722;DHT22;10522;52.198;9.890;2024-03-22T12:25:01;12.90;99.90
20722;DHT22;10522;52.198;9.890;2024-03-22T12:27:26;12.90;99.90
20722;DHT22;10522;52.198;9.890;2024-03-22T12:29:52;12.90;99.90
20722;DHT22;10522;52.198;9.890;2024-03-22T12:32:18;12.80;99.90
20722;DHT22;10522;52.198;9.890;2024-03-22T12:34:44;12.90;99.90
20722;DHT22;10522;52.198;9.890;2024-03-22T12:37:10;12.90;99.90
20722;DHT22;10522;52.198;9.890;2024-03-22T12:39:35;13.00;99.90
20722;DHT22;10522;52.198;9.890;2024-03-22T12:42:02;13.00;99.90
20722;DHT22;10522;52.198;9.890;2024-03-22T12:44:28;12.90;99.90
20722;DHT22;10522;52.198;9.890;2024-03-22T12:46:54;13.00;99.90
20722;DHT22;10522;52.198;9.890;2024-03-22T12:49:20;13.00;99.90
20722;DHT22;10522;52.198;9.890;2024-03-22T12:51:45;13.00;99.90
20722;DHT22;10522;52.198;9.890;2024-03-22T12:54:11;13.00;99.90
20722;DHT22;10522;52.198;9.890;2024-03-22T12:56:39;13.00;99.90
20722;DHT22;10522;52.198;9.890;2024-03-22T12:59:05;13.00;99.90
20722;DHT22;10522;52.198;9.890;2024-03-22T13:01:31;12.90;99.90
20722;DHT22;10522;52.198;9.890;2024-03-22T13:03:56;13.00;99.90
20722;DHT22;10522;52.198;9.890;2024-03-22T13:06:22;12.90;99.90
20722;DHT22;10522;52.198;9.890;2024-03-22T13:08:48;12.90;99.90
20722;DHT22;10522;52.198;9.890;2024-03-22T13:11:13;12.90;99.90
20722;DHT22;10522;52.198;9.890;2024-03-22T13:13:39;12.90;99.90
20722;DHT22;10522;52.198;9.890;2024-03-22T13:16:05;13.00;99.90
20722;DHT22;10522;52.198;9.890;2024-03-22T13:18:32;13.00;99.90
20722;DHT22;10522;52.198;9.890;2024-03-22T13:20:58;12.90;99.90
20722;DHT22;10522;52.198;9.890;2024-03-22T13:23:28;12.90;99.90
20722;DHT22;10522;52.198;9.890;2024-03-22T13:25:54;12.90;99.90
20722;DHT22;10522;52.198;9.890;2024-03-22T13:28:20;12.80;99.90
20722;DHT22;10522;52.198;9.890;2024-03-22T13:30:48;12.80;99.90
20722;DHT22;10522;52.198;9.890;2024-03-22T13:33:14;12.80;99.90
20722;DHT22;10522;52.198;9.890;2024-03-22T13:35:40;12.80;99.90
20722;DHT22;10522;52.198;9.890;2024-03-22T13:38:06;12.80;99.90
20722;DHT22;10522;52.198;9.890;2024-03-22T13:40:38;12.80;99.90
20722;DHT22;10522;52.198;9.890;2024-03-22T13:43:05;12.80;99.90
20722;DHT22;10522;52.198;9.890;2024-03-22T13:45:31;12.70;99.90
20722;DHT22;10522;52.198;9.890;2024-03-22T13:47:56;12.70;99.90
20722;DHT22;10522;52.198;9.890;2024-03-22T13:50:22;12.40;99.90
20722;DHT22;10522;52.198;9.890;2024-03-22T13:52:48;12.40;99.90
20722;DHT22;10522;52.198;9.890;2024-03-22T13:55:14;12.40;99.90
20722;DHT22;10522;52.198;9.890;2024-03-22T13:57:40;12.30;99.90
20722;DHT22;10522;52.198;9.890;2024-03-22T14:00:06;12.30;99.90
20722;DHT22;10522;52.198;9.890;2024-03-22T14:02:32;12.20;99.90
20722;DHT22;10522;52.198;9.890;2024-03-22T14:04:58;12.20;99.90
20722;DHT22;10522;52.198;9.890;2024-03-22T14:07:24;12.20;99.90
20722;DHT22;10522;52.198;9.890;2024-03-22T14:09:49;12.20;99.90
20722;DHT22;10522;52.198;9.890;2024-03-22T14:12:15;12.20;99.90
20722;DHT22;10522;52.198;9.890;2024-03-22T14:14:41;12.10;99.90
20722;DHT22;10522;52.198;9.890;2024-03-22T14:17:06;12.00;99.90
20722;DHT22;10522;52.198;9.890;2024-03-22T14:19:32;11.90;99.90
20722;DHT22;10522;52.198;9.890;2024-03-22T14:21:57;11.90;99.90
20722;DHT22;10522;52.198;9.890;2024-03-22T14:24:23;12.00;99.90
20722;DHT22;10522;52.198;9.890;2024-03-22T14:26:48;11.80;99.90
20722;DHT22;10522;52.198;9.890;2024-03-22T14:29:15;11.80;99.90
20722;DHT22;10522;52.198;9.890;2024-03-22T14:31:41;11.80;99.90
20722;DHT22;10522;52.198;9.890;2024-03-22T14:34:08;11.70;99.90
20722;DHT22;10522;52.198;9.890;2024-03-22T14:36:34;11.60;99.90
20722;DHT22;10522;52.198;9.890;2024-03-22T14:39:00;11.60;99.90
20722;DHT22;10522;52.198;9.890;2024-03-22T14:41:29;11.60;99.90
20722;DHT22;10522;52.198;9.890;2024-03-22T14:43:55;11.50;99.90
20722;DHT22;10522;52.198;9.890;2024-03-22T14:46:21;11.50;99.90
20722;DHT22;10522;52.198;9.890;2024-03-22T14:48:50;11.40;99.90
20722;DHT22;10522;52.198;9.890;2024-03-22T14:51:16;11.60;99.90
20722;DHT22;10522;52.198;9.890;2024-03-22T14:53:41;11.40;99.90
20722;DHT22;10522;52.198;9.890;2024-03-22T14:56:07;11.40;99.90
20722;DHT22;10522;52.198;9.890;2024-03-22T14:58:34;11.30;99.90
20722;DHT22;10522;52.198;9.890;2024-03-22T15:01:02;11.20;99.90
20722;DHT22;10522;52.198;9.890;2024-03-22T15:03:28;11.20;99.90
20722;DHT22;10522;52.198;9.890;2024-03-22T15:05:55;11.10;99.90
20722;DHT22;10522;52.198;9.890;2024-03-22T15:08:23;11.20;99.90
20722;DHT22;10522;52.198;9.890;2024-03-22T15:10:50;11.00;99.90
20722;DHT22;10522;52.198;9.890;2024-03-22T15:13:17;11.10;99.90
20722;DHT22;10522;52.198;9.890;2024-03-22T15:15:43;10.90;99.90
20722;DHT22;10522;52.198;9.890;2024-03-22T15:18:17;11.10;99.90
20722;DHT22;10522;52.198;9.890;2024-03-22T15:20:42;10.90;99.90
20722;DHT22;10522;52.198;9.890;2024-03-22T15:23:08;10.90;99.90
20722;DHT22;10522;52.198;9.890;2024-03-22T15:25:34;10.90;99.90
20722;DHT22;10522;52.198;9.890;2024-03-22T15:27:59;10.80;99.90
20722;DHT22;10522;52.198;9.890;2024-03-22T15:30:25;10.90;99.90
20722;DHT22;10522;52.198;9.890;2024-03-22T15:32:52;10.80;99.90